Flight Track Log - Related Links

Times and Time Zones

All times are in EDT time to prevent confusion due to time zone crossing. See the FLG3861 flight status page for this flight to view local times or setup timezone preferences in your user account.

Time Position Orientation Groundspeed Altitude Reporting Facility
EDT Latitude Longitude Course Direction KTS MPH feet Rate Location/Type
Fri 09:39:37 PM 42.2225 -83.3564 30° Northeast 144 166 1,300  Level Cleveland Center
Fri 09:40:19 PM 42.2500 -83.3350 30° Northeast 194 223 2,600 2,713 Climbing Cleveland Center
Fri 09:41:32 PM 42.3014 -83.2839 36° Northeast 188 216 6,500 2,242 Climbing Cleveland Center
Fri 09:43:37 PM 42.3036 -83.0958 89° East 282 325 10,000 1,135 Climbing Cleveland Center
Fri 09:44:37 PM 42.2978 -82.9667 93° East 311 358 10,000 850 Level Cleveland Center
Fri 09:45:37 PM 42.3028 -82.8319 87° East 336 387 11,700 1,650 Climbing Cleveland Center
Fri 09:46:37 PM 42.3283 -82.6953 76° East 357 411 13,300 1,550 Climbing Cleveland Center
Fri 09:47:37 PM 42.3494 -82.5525 79° East 371 427 14,800 1,350 Climbing Cleveland Center
Fri 09:48:37 PM 42.3644 -82.4097 82° East 376 433 16,000 1,100 Climbing Cleveland Center
Fri 09:49:37 PM 42.3583 -82.2606 93° East 381 438 17,000 900 Climbing Cleveland Center
Fri 09:50:37 PM 42.3522 -82.1031 93° East 396 456 17,800 950 Climbing Cleveland Center
Fri 09:51:37 PM 42.3478 -81.9458 92° East 417 480 18,900 1,050 Climbing Cleveland Center
Fri 09:52:37 PM 42.3392 -81.7911 94° East 423 487 19,900 1,000 Climbing Cleveland Center
Fri 09:53:37 PM 42.3303 -81.6308 94° East 423 487 20,900 1,000 Climbing Cleveland Center
Fri 09:54:37 PM 42.3214 -81.4592 94° East 423 487 21,900 1,000 Climbing Cleveland Center
Fri 09:55:37 PM 42.3161 -81.3047 93° East 423 487 22,900 1,050 Climbing Cleveland Center
Fri 09:56:37 PM 42.3067 -81.1475 95° East 423 487 24,000 1,050 Climbing Cleveland Center
Fri 09:57:37 PM 42.2989 -80.9903 94° East 423 487 25,000 1,000 Climbing Cleveland Center
Fri 09:58:37 PM 42.2911 -80.8414 94° East 417 480 26,000 850 Climbing Cleveland Center
Fri 09:59:37 PM 42.2850 -80.6897 93° East 406 467 26,700 700 Climbing Cleveland Center
Fri 10:00:37 PM 42.2767 -80.5356 94° East 406 467 27,400 700 Climbing Cleveland Center
Fri 10:01:37 PM 42.2683 -80.3783 94° East 406 467 28,100 600 Climbing Cleveland Center
Fri 10:02:37 PM 42.2575 -80.2408 96° East 406 467 28,600 450 Climbing Cleveland Center
Fri 10:03:37 PM 42.2508 -80.0867 93° East 406 467 29,000 200 Climbing Cleveland Center
Fri 10:04:37 PM 42.2394 -79.9128 95° East 415 478 29,000  Level Cleveland Center
Fri 10:05:37 PM 42.2319 -79.7447 93° East 426 490 29,000  Level Cleveland Center
Fri 10:06:37 PM 42.2203 -79.5822 95° East 436 502 29,000  Level Cleveland Center
Fri 10:07:37 PM 42.2083 -79.4142 95° East 441 507 29,000 -200 Level Cleveland Center
Fri 10:08:37 PM 42.1981 -79.2464 95° East 441 507 28,600 -700 Descending Cleveland Center
Fri 10:09:37 PM 42.1900 -79.0783 94° East 441 507 27,600 -950 Descending Cleveland Center
Fri 10:10:37 PM 42.1922 -78.9408 89° East 441 507 26,700 -1,050 Descending Cleveland Center
Fri 10:11:37 PM 42.1953 -78.7389 89° East 441 507 25,500 -850 Descending Cleveland Center
Fri 10:12:37 PM 42.1989 -78.5764 88° East 441 507 25,000 -250 Descending Cleveland Center
Fri 10:13:37 PM 42.2000 -78.4108 89° East 441 507 25,000  Level Cleveland Center
Fri 10:14:37 PM 42.2031 -78.2425 89° East 441 507 25,000 -500 Level Cleveland Center
Fri 10:15:37 PM 42.2058 -78.0744 89° East 441 507 24,000 -990 Descending Cleveland Center
Fri 10:18:03 PM 42.2078 -77.6803 89° East 461 531 21,600 -995 Descending New York Center
Fri 10:19:02 PM 42.2089 -77.5153 89° East 456 525 20,600 -1,059 Descending New York Center
Fri 10:20:02 PM 42.2094 -77.3531 90° East 445 512 19,500 -1,500 Descending New York Center
Fri 10:21:02 PM 42.2097 -77.1961 90° East 433 498 17,600 -1,800 Descending New York Center
Fri 10:22:02 PM 42.2094 -77.0478 90° East 412 474 15,900 -2,100 Descending New York Center
Fri 10:23:02 PM 42.2103 -76.9106 89° East 386 444 13,400 -2,500 Descending New York Center
Fri 10:24:02 PM 42.2108 -76.7761 90° East 366 421 10,900 -1,900 Descending New York Center
Fri 10:25:02 PM 42.2092 -76.6444 91° East 341 392 9,600 -950 Descending New York Center
Fri 10:26:02 PM 42.2081 -76.5381 91° East 305 351 9,000 -800 Descending New York Center
Fri 10:27:02 PM 42.2089 -76.4317 89° East 288 331 8,000 -1,450 Descending New York Center
Fri 10:28:02 PM 42.1822 -76.3397 111° Southeast 263 303 6,100 -1,900 Descending New York Center
Fri 10:29:02 PM 42.1228 -76.2706 139° Southeast 263 303 4,200 -1,050 Descending New York Center
Fri 10:30:02 PM 42.0656 -76.2014 138° Southeast 268 308 4,000 -99 Descending New York Center
Fri 10:31:03 PM 42.0042 -76.1350 141° Southeast 279 321 4,000  Level New York Center
Fri 10:32:02 PM 41.9811 -76.0467 109° East 254 292 4,000  Level New York Center
Fri 10:33:02 PM 41.9911 -75.9583 81° East 243 280 4,000 -50 Level New York Center
Fri 10:34:02 PM 42.0014 -75.8697 81° East 243 280 3,900 -50 Descending New York Center
Fri 10:35:02 PM 42.0578 -75.8600 North 170 196 3,900  Level New York Center
Fri 10:36:02 PM 42.1003 -75.8914 331° Northwest 150 173 3,900 -350 Level New York Center
Fri 10:37:02 PM 42.1325 -75.9189 328° Northwest 138 159 3,200 -700 Descending New York Center
Fri 10:38:02 PM 42.1625 -75.9436 329° Northwest 127 146 2,500 -700 Descending New York Center

Login

Don't have an account? Register now (free) for customized features, flight alerts, and more!